createdAt,value
2017-11-01T00:00:54.016Z,5.28
2017-11-01T00:03:21.669Z,6.20
2017-11-01T00:05:49.228Z,5.07
2017-11-01T00:08:16.785Z,5.30
2017-11-01T00:10:44.307Z,5.70
2017-11-01T00:13:11.816Z,6.20
2017-11-01T00:15:39.748Z,5.65
2017-11-01T00:18:07.265Z,5.87
2017-11-01T00:20:35.217Z,5.60
2017-11-01T00:23:02.738Z,4.90
2017-11-01T00:25:30.243Z,4.78
2017-11-01T00:27:57.781Z,5.50
2017-11-01T00:30:25.305Z,5.25
2017-11-01T00:32:52.865Z,5.50
2017-11-01T00:35:20.397Z,5.82
2017-11-01T00:37:47.915Z,5.07
2017-11-01T00:40:15.450Z,5.95
2017-11-01T00:42:42.967Z,6.53
2017-11-01T00:45:10.505Z,6.22
2017-11-01T00:47:38.020Z,6.20
2017-11-01T00:50:06.019Z,6.65
2017-11-01T00:52:33.550Z,7.35
2017-11-01T00:55:01.099Z,7.07
2017-11-01T00:57:28.636Z,7.50
2017-11-01T00:59:56.162Z,8.10
2017-11-01T01:02:23.699Z,8.73
2017-11-01T01:04:51.223Z,9.43
2017-11-01T01:07:18.773Z,9.95
2017-11-01T01:09:46.292Z,9.68
2017-11-01T01:12:13.812Z,10.02
2017-11-01T01:14:41.345Z,9.90
2017-11-01T01:17:08.883Z,10.10
2017-11-01T01:19:36.420Z,10.20
2017-11-01T01:22:03.946Z,10.07
2017-11-01T01:24:31.880Z,9.68
2017-11-01T01:26:59.401Z,8.77
2017-11-01T01:29:26.922Z,7.70
2017-11-01T01:31:54.470Z,8.65
2017-11-01T01:34:21.984Z,7.30
2017-11-01T01:36:49.917Z,7.57
2017-11-01T01:39:17.433Z,8.73
2017-11-01T01:41:44.988Z,8.68
2017-11-01T01:44:12.500Z,8.85
2017-11-01T01:46:40.417Z,7.78
2017-11-01T01:49:07.949Z,7.65
2017-11-01T01:51:35.866Z,8.20
2017-11-01T01:54:03.406Z,8.98
2017-11-01T01:56:31.320Z,8.50
2017-11-01T01:58:58.859Z,8.25
2017-11-01T02:01:26.382Z,8.20
2017-11-01T02:03:53.921Z,8.45
2017-11-01T02:06:21.447Z,9.48
2017-11-01T02:08:48.970Z,8.27
2017-11-01T02:11:16.513Z,8.18
2017-11-01T02:13:44.431Z,8.95
2017-11-01T02:16:11.981Z,8.40
2017-11-01T02:18:39.508Z,8.18
2017-11-01T02:21:07.031Z,9.70
2017-11-01T02:23:34.570Z,8.85
2017-11-01T02:26:02.476Z,9.30
2017-11-01T02:28:30.011Z,8.35
2017-11-01T02:30:57.935Z,9.82
2017-11-01T02:33:25.473Z,9.45
2017-11-01T02:35:53.385Z,9.05
2017-11-01T02:38:20.912Z,10.27
2017-11-01T02:40:48.460Z,10.43
2017-11-01T02:43:15.980Z,10.63
2017-11-01T02:45:43.527Z,10.45
2017-11-01T02:48:11.455Z,9.95
2017-11-01T02:50:38.984Z,11.73
2017-11-01T02:53:06.897Z,10.75
2017-11-01T02:55:34.423Z,9.93
2017-11-01T02:58:01.972Z,10.63
2017-11-01T03:00:29.502Z,10.00
2017-11-01T03:02:57.055Z,11.48
2017-11-01T03:05:24.578Z,10.35
2017-11-01T03:07:52.125Z,11.23
2017-11-01T03:10:19.651Z,10.73
2017-11-01T03:12:47.178Z,10.85
2017-11-01T03:15:14.727Z,11.15
2017-11-01T03:17:42.251Z,11.75
2017-11-01T03:20:09.786Z,11.20
2017-11-01T03:22:37.305Z,11.88
2017-11-01T03:25:04.849Z,10.45
2017-11-01T03:27:32.365Z,9.65
2017-11-01T03:29:59.884Z,10.32
2017-11-01T03:32:27.426Z,10.00
2017-11-01T03:34:54.942Z,9.35
2017-11-01T03:37:22.488Z,10.27
2017-11-01T03:39:50.012Z,8.80
2017-11-01T03:42:17.552Z,9.77
2017-11-01T03:44:45.070Z,9.23
2017-11-01T03:47:12.989Z,10.05
2017-11-01T03:49:40.539Z,10.32
2017-11-01T03:52:08.058Z,9.05
2017-11-01T03:54:35.596Z,8.50
2017-11-01T03:57:03.112Z,8.57
2017-11-01T03:59:30.653Z,9.80
2017-11-01T04:01:58.166Z,8.60
2017-11-01T04:04:26.081Z,9.35
2017-11-01T04:06:53.618Z,8.25
2017-11-01T04:09:21.141Z,8.73
2017-11-01T04:11:48.674Z,8.77
2017-11-01T04:14:16.176Z,8.90
2017-11-01T04:16:45.499Z,8.27
2017-11-01T04:19:18.720Z,7.97
2017-11-01T04:21:46.278Z,9.27
2017-11-01T04:24:13.793Z,9.35
2017-11-01T04:26:41.712Z,9.15
2017-11-01T04:29:09.254Z,8.57
2017-11-01T04:31:36.781Z,9.80
2017-11-01T04:34:04.331Z,10.65
2017-11-01T04:36:31.855Z,10.10
2017-11-01T04:38:59.796Z,9.82
2017-11-01T04:41:27.306Z,9.95
2017-11-01T04:43:55.216Z,9.60
2017-11-01T04:46:22.747Z,9.27
2017-11-01T04:48:51.225Z,9.90
2017-11-01T04:51:18.761Z,10.45
2017-11-01T04:53:46.285Z,11.95
2017-11-01T04:56:17.658Z,10.77
2017-11-01T04:58:45.574Z,10.70
2017-11-01T05:01:13.113Z,10.82
2017-11-01T05:03:41.034Z,10.55
2017-11-01T05:06:10.430Z,10.40
2017-11-01T05:08:41.940Z,11.65
2017-11-01T05:11:09.483Z,11.45
2017-11-01T05:13:44.692Z,12.73
2017-11-01T05:16:15.349Z,11.80
2017-11-01T05:18:43.704Z,12.27
2017-11-01T05:21:11.282Z,13.85
2017-11-01T05:23:53.424Z,13.30
2017-11-01T05:26:20.978Z,13.80
2017-11-01T05:28:48.505Z,13.40
2017-11-01T05:31:18.961Z,12.60
2017-11-01T05:33:46.506Z,13.38
2017-11-01T05:36:14.029Z,12.93
2017-11-01T05:38:41.974Z,13.40
2017-11-01T05:41:09.505Z,13.35
2017-11-01T05:43:37.215Z,12.20
2017-11-01T05:46:04.738Z,11.95
2017-11-01T05:48:32.660Z,12.15
2017-11-01T05:51:00.214Z,11.85
2017-11-01T05:53:27.748Z,12.50
2017-11-01T05:55:57.120Z,13.60
2017-11-01T05:58:24.636Z,12.82
2017-11-01T06:00:52.196Z,12.85
2017-11-01T06:03:19.722Z,14.38
2017-11-01T06:05:47.259Z,13.82
2017-11-01T06:08:16.098Z,12.48
2017-11-01T06:10:43.626Z,13.43
2017-11-01T06:13:11.175Z,12.90
2017-11-01T06:15:38.701Z,13.95
2017-11-01T06:18:06.263Z,12.95
2017-11-01T06:20:33.794Z,13.07
2017-11-01T06:23:01.321Z,12.95
2017-11-01T06:25:28.860Z,13.93
2017-11-01T06:27:56.384Z,13.77
2017-11-01T06:30:23.920Z,11.85
2017-11-01T06:32:51.446Z,12.05
2017-11-01T06:35:19.010Z,12.73
2017-11-01T06:37:46.539Z,12.70
2017-11-01T06:40:14.061Z,11.95
2017-11-01T06:42:41.596Z,12.32
2017-11-01T06:45:09.124Z,11.82
2017-11-01T06:47:37.058Z,12.27
2017-11-01T06:50:04.585Z,13.05
2017-11-01T06:52:33.602Z,11.80
2017-11-01T06:55:01.124Z,11.40
2017-11-01T06:57:28.651Z,11.93
2017-11-01T06:59:56.192Z,11.12
2017-11-01T07:02:24.109Z,11.55
2017-11-01T07:04:54.558Z,12.65
2017-11-01T07:07:22.090Z,12.82
2017-11-01T07:09:50.045Z,11.60
2017-11-01T07:12:17.575Z,11.12
2017-11-01T07:14:45.104Z,11.15
2017-11-01T07:17:12.654Z,12.63
2017-11-01T07:19:40.177Z,12.40
2017-11-01T07:22:07.724Z,11.30
2017-11-01T07:24:35.640Z,11.73
2017-11-01T07:27:03.189Z,12.05
2017-11-01T07:29:31.106Z,12.85
2017-11-01T07:31:58.662Z,12.25
2017-11-01T07:34:26.194Z,12.93
2017-11-01T07:36:54.376Z,13.18
2017-11-01T07:39:22.326Z,11.05
2017-11-01T07:41:49.854Z,11.05
2017-11-01T07:44:17.404Z,10.75
2017-11-01T07:46:45.324Z,9.60
2017-11-01T07:49:12.874Z,11.82
2017-11-01T07:51:40.793Z,11.00
2017-11-01T07:54:08.345Z,10.43
2017-11-01T07:56:35.877Z,9.45
2017-11-01T07:59:03.398Z,11.25
2017-11-01T08:01:31.026Z,11.38
2017-11-01T08:03:58.954Z,13.73
2017-11-01T08:06:26.507Z,12.40
2017-11-01T08:08:54.038Z,12.15
2017-11-01T08:11:21.582Z,10.57
2017-11-01T08:13:49.117Z,9.20
2017-11-01T08:16:16.681Z,10.48
2017-11-01T08:18:44.215Z,10.82
2017-11-01T08:21:11.733Z,8.10
2017-11-01T08:23:39.267Z,8.57
2017-11-01T08:26:06.821Z,9.05
2017-11-01T08:28:34.377Z,9.50
2017-11-01T08:31:01.901Z,8.60
2017-11-01T08:33:29.837Z,10.48
2017-11-01T08:35:57.363Z,10.70
2017-11-01T08:38:24.921Z,10.75
2017-11-01T08:40:52.855Z,10.00
2017-11-01T08:43:20.372Z,9.95
2017-11-01T08:45:48.313Z,12.02
2017-11-01T08:48:16.001Z,11.95
2017-11-01T08:50:44.387Z,10.57
2017-11-01T08:53:11.914Z,10.55
2017-11-01T08:55:39.565Z,10.57
2017-11-01T08:58:07.500Z,10.50
2017-11-01T09:00:35.066Z,11.90
2017-11-01T09:03:02.581Z,12.43
2017-11-01T09:05:30.516Z,10.13
2017-11-01T09:07:58.055Z,10.90
2017-11-01T09:10:25.589Z,10.95
2017-11-01T09:12:53.138Z,12.30
2017-11-01T09:15:20.666Z,13.52
2017-11-01T09:17:48.216Z,13.10
2017-11-01T09:20:15.759Z,13.40
2017-11-01T09:22:43.325Z,13.80
2017-11-01T09:25:10.853Z,14.80
2017-11-01T09:27:38.627Z,14.87
2017-11-01T09:30:06.167Z,16.65
2017-11-01T09:32:33.760Z,15.45
2017-11-01T09:35:01.701Z,14.98
2017-11-01T09:37:29.225Z,15.05
2017-11-01T09:39:56.777Z,14.27
2017-11-01T09:42:24.704Z,14.52
2017-11-01T09:44:52.276Z,14.00
2017-11-01T09:47:19.804Z,13.48
2017-11-01T09:49:47.732Z,14.77
2017-11-01T09:52:15.282Z,13.23
2017-11-01T09:54:42.819Z,13.70
2017-11-01T09:57:10.770Z,13.15
2017-11-01T09:59:38.314Z,12.40
2017-11-01T10:02:05.876Z,14.10
2017-11-01T10:04:33.412Z,15.68
2017-11-01T10:07:00.982Z,14.75
2017-11-01T10:09:28.515Z,13.40
2017-11-01T10:11:56.056Z,14.00
2017-11-01T10:14:23.606Z,14.50
2017-11-01T10:16:51.533Z,15.10
2017-11-01T10:19:19.089Z,15.35
2017-11-01T10:21:46.659Z,14.00
2017-11-01T10:24:14.222Z,14.90
2017-11-01T10:26:41.749Z,16.75
2017-11-01T10:29:09.281Z,15.80
2017-11-01T10:31:36.832Z,15.50
2017-11-01T10:34:04.404Z,15.57
2017-11-01T10:36:31.991Z,13.80
2017-11-01T10:38:59.525Z,13.20
2017-11-01T10:41:27.057Z,14.27
2017-11-01T10:43:54.616Z,13.00
2017-11-01T10:46:22.137Z,13.45
2017-11-01T10:48:50.088Z,15.50
2017-11-01T10:51:17.611Z,14.45
2017-11-01T10:53:45.161Z,15.30
2017-11-01T10:56:12.692Z,14.32
2017-11-01T10:58:40.229Z,14.00
2017-11-01T11:01:07.803Z,14.07
2017-11-01T11:03:35.356Z,14.82
2017-11-01T11:06:03.317Z,13.30
2017-11-01T11:08:30.852Z,13.60
2017-11-01T11:10:58.422Z,14.57
2017-11-01T11:13:25.986Z,13.75
2017-11-01T11:15:53.522Z,12.63
2017-11-01T11:18:21.077Z,13.18
2017-11-01T11:20:48.622Z,13.43
2017-11-01T11:23:16.181Z,11.33
2017-11-01T11:25:43.732Z,10.80
2017-11-01T11:28:11.310Z,12.55
2017-11-01T11:30:38.859Z,11.30
2017-11-01T11:33:06.791Z,11.70
2017-11-01T11:35:34.336Z,12.60
2017-11-01T11:38:01.880Z,10.73
2017-11-01T11:40:29.825Z,12.10
2017-11-01T11:42:57.351Z,10.80
2017-11-01T11:45:24.902Z,11.23
2017-11-01T11:47:52.820Z,11.40
2017-11-01T11:50:20.372Z,9.80
2017-11-01T11:52:47.904Z,10.90
2017-11-01T11:55:15.444Z,10.33
2017-11-01T11:57:42.990Z,9.77
2017-11-01T12:00:10.517Z,10.67
2017-11-01T12:02:38.060Z,11.90
2017-11-01T12:05:05.595Z,10.23
2017-11-01T12:07:33.146Z,10.90
2017-11-01T12:10:01.065Z,10.90
2017-11-01T12:12:28.644Z,10.90
2017-11-01T12:14:56.194Z,10.60
2017-11-01T12:17:23.737Z,10.73
2017-11-01T12:19:51.276Z,12.07
2017-11-01T12:22:18.807Z,8.77
2017-11-01T12:24:46.362Z,8.70
2017-11-01T12:27:14.283Z,8.63
2017-11-01T12:29:41.826Z,7.43
2017-11-01T12:32:09.358Z,6.93
2017-11-01T12:34:36.927Z,7.00
2017-11-01T12:37:04.450Z,7.20
2017-11-01T12:39:31.976Z,6.37
2017-11-01T12:41:59.513Z,6.50
2017-11-01T12:44:27.044Z,6.60
2017-11-01T12:46:54.992Z,7.90
2017-11-01T12:49:22.519Z,6.60
2017-11-01T12:51:50.078Z,6.53
2017-11-01T12:54:17.632Z,5.83
2017-11-01T12:56:45.619Z,6.80
2017-11-01T12:59:13.542Z,7.00
2017-11-01T13:01:41.126Z,7.07
2017-11-01T13:04:08.672Z,6.00
2017-11-01T13:06:36.206Z,6.00
2017-11-01T13:09:04.140Z,6.60
2017-11-01T13:11:31.658Z,5.57
2017-11-01T13:13:59.193Z,7.07
2017-11-01T13:16:26.713Z,5.57
2017-11-01T13:18:54.698Z,5.50
2017-11-01T13:21:22.277Z,6.17
2017-11-01T13:23:49.800Z,6.50
2017-11-01T13:26:17.340Z,4.83
2017-11-01T13:28:44.876Z,5.07
2017-11-01T13:31:12.479Z,5.00
2017-11-01T13:33:40.011Z,4.33
2017-11-01T13:36:08.027Z,5.03
2017-11-01T13:38:35.604Z,5.83
2017-11-01T13:41:03.164Z,4.47
2017-11-01T13:43:30.692Z,4.90
2017-11-01T13:45:58.222Z,5.07
2017-11-01T13:48:25.766Z,5.00
2017-11-01T13:50:53.690Z,4.93
2017-11-01T13:53:21.226Z,4.37
2017-11-01T13:55:48.745Z,4.73
2017-11-01T13:58:16.295Z,5.10
2017-11-01T14:00:43.832Z,5.00
2017-11-01T14:03:11.390Z,4.67
2017-11-01T14:05:39.327Z,5.80
2017-11-01T14:08:06.977Z,4.77
2017-11-01T14:10:34.511Z,4.60
2017-11-01T14:13:02.039Z,5.10
2017-11-01T14:15:29.920Z,4.33
2017-11-01T14:17:57.481Z,4.27
2017-11-01T14:20:25.203Z,4.10
2017-11-01T14:22:52.840Z,4.30
2017-11-01T14:25:20.482Z,5.17
2017-11-01T14:27:48.011Z,5.90
2017-11-01T14:30:15.537Z,5.43
2017-11-01T14:32:43.087Z,4.80
2017-11-01T14:35:11.111Z,5.33
2017-11-01T14:37:38.652Z,4.03
2017-11-01T14:40:07.037Z,4.10
2017-11-01T14:42:34.582Z,4.20
2017-11-01T14:45:02.506Z,4.30
2017-11-01T14:47:30.072Z,4.83
2017-11-01T14:49:57.601Z,4.10
2017-11-01T14:52:25.260Z,4.50
2017-11-01T14:54:53.444Z,4.90
2017-11-01T14:57:20.973Z,4.30
2017-11-01T14:59:48.520Z,4.73
2017-11-01T15:02:16.446Z,4.70
2017-11-01T15:04:43.991Z,4.47
2017-11-01T15:07:11.519Z,4.37
2017-11-01T15:09:39.086Z,4.23
2017-11-01T15:12:06.609Z,3.87
2017-11-01T15:14:34.143Z,4.10
2017-11-01T15:17:01.781Z,4.43
2017-11-01T15:19:29.316Z,4.40
2017-11-01T15:21:56.869Z,4.37
2017-11-01T15:24:24.788Z,3.60
2017-11-01T15:26:52.325Z,4.60
2017-11-01T15:29:20.242Z,4.60
2017-11-01T15:31:47.807Z,3.90
2017-11-01T15:34:15.334Z,3.83
2017-11-01T15:36:43.260Z,3.80
2017-11-01T15:39:10.802Z,4.27
2017-11-01T15:41:38.355Z,4.55
2017-11-01T15:44:06.056Z,4.73
2017-11-01T15:46:33.583Z,4.40
2017-11-01T15:49:01.151Z,4.03
2017-11-01T15:51:28.708Z,3.70
2017-11-01T15:53:56.260Z,4.47
2017-11-01T15:56:23.818Z,4.18
2017-11-01T15:58:51.350Z,3.92
2017-11-01T16:01:18.902Z,4.72
2017-11-01T16:03:46.431Z,4.95
2017-11-01T16:06:13.983Z,4.85
2017-11-01T16:08:41.907Z,4.57
2017-11-01T16:11:09.482Z,6.60
2017-11-01T16:13:37.018Z,5.75
2017-11-01T16:16:04.938Z,5.90
2017-11-01T16:18:32.485Z,6.87
2017-11-01T16:21:00.033Z,7.07
2017-11-01T16:23:27.593Z,7.30
2017-11-01T16:25:55.522Z,6.15
2017-11-01T16:28:23.088Z,7.07
2017-11-01T16:30:50.621Z,7.78
2017-11-01T16:33:18.554Z,5.65
2017-11-01T16:35:46.093Z,5.93
2017-11-01T16:38:14.016Z,5.53
2017-11-01T16:40:41.548Z,5.82
2017-11-01T16:43:09.096Z,5.65
2017-11-01T16:45:36.674Z,4.57
2017-11-01T16:48:04.610Z,4.90
2017-11-01T16:50:32.150Z,4.87
2017-11-01T16:52:59.697Z,6.22
2017-11-01T16:55:27.616Z,7.22
2017-11-01T16:57:55.158Z,7.22
2017-11-01T17:00:23.082Z,4.55
2017-11-01T17:02:50.643Z,3.67
2017-11-01T17:05:18.161Z,5.62
2017-11-01T17:07:45.694Z,5.03
2017-11-01T17:10:13.234Z,5.32
2017-11-01T17:12:40.768Z,5.70
2017-11-01T17:15:08.303Z,6.70
2017-11-01T17:17:36.313Z,7.00
2017-11-01T17:20:03.865Z,6.80
2017-11-01T17:22:31.384Z,7.90
2017-11-01T17:24:59.303Z,7.60
2017-11-01T17:27:26.857Z,8.00
2017-11-01T17:29:54.410Z,9.70
2017-11-01T17:32:21.960Z,7.25
2017-11-01T17:34:49.482Z,5.60
2017-11-01T17:37:17.018Z,6.12
2017-11-01T17:39:44.953Z,7.40
2017-11-01T17:42:12.514Z,6.57
2017-11-01T17:44:40.037Z,6.15
2017-11-01T17:47:07.557Z,7.18
2017-11-01T17:49:35.089Z,5.15
2017-11-01T17:52:03.015Z,7.30
2017-11-01T17:54:30.545Z,6.68
2017-11-01T17:56:58.477Z,5.80
2017-11-01T17:59:26.009Z,6.05
2017-11-01T18:01:53.535Z,11.65
2017-11-01T18:04:21.092Z,5.97
2017-11-01T18:06:48.618Z,9.25
2017-11-01T18:09:16.528Z,5.75
2017-11-01T18:11:44.274Z,6.70
2017-11-01T18:14:12.189Z,6.30
2017-11-01T18:16:39.726Z,6.50
2017-11-01T18:19:07.255Z,6.85
2017-11-01T18:21:34.793Z,5.62
2017-11-01T18:24:02.311Z,5.90
2017-11-01T18:26:29.866Z,7.10
2017-11-01T18:28:57.397Z,6.25
2017-11-01T18:31:24.925Z,5.80
2017-11-01T18:33:52.464Z,6.20
2017-11-01T18:36:20.038Z,6.00
2017-11-01T18:38:47.590Z,5.45
2017-11-01T18:41:15.129Z,5.70
2017-11-01T18:43:43.079Z,6.30
2017-11-01T18:46:10.615Z,5.72
2017-11-01T18:48:38.184Z,6.30
2017-11-01T18:51:05.802Z,6.20
2017-11-01T18:53:33.331Z,6.60
2017-11-01T18:56:00.890Z,6.00
2017-11-01T18:58:28.441Z,6.07
2017-11-01T19:00:56.387Z,6.40
2017-11-01T19:03:23.910Z,5.82
2017-11-01T19:05:51.479Z,5.25
2017-11-01T19:08:19.017Z,6.40
2017-11-01T19:10:46.605Z,6.50
2017-11-01T19:13:14.529Z,6.55
2017-11-01T19:15:42.058Z,6.25
2017-11-01T19:18:10.004Z,5.93
2017-11-01T19:20:37.536Z,6.05
2017-11-01T19:23:05.080Z,5.82
2017-11-01T19:25:32.616Z,6.82
2017-11-01T19:28:00.169Z,6.93
2017-11-01T19:30:27.697Z,7.12
2017-11-01T19:32:55.654Z,7.35
2017-11-01T19:35:23.173Z,6.65
2017-11-01T19:37:50.697Z,6.85
2017-11-01T19:40:18.273Z,6.40
2017-11-01T19:42:45.864Z,6.75
2017-11-01T19:45:13.792Z,6.12
2017-11-01T19:47:41.315Z,6.78
2017-11-01T19:50:09.251Z,6.30
2017-11-01T19:52:36.785Z,6.40
2017-11-01T19:55:04.325Z,6.80
2017-11-01T19:57:31.856Z,7.05
2017-11-01T19:59:59.386Z,8.05
2017-11-01T20:02:27.316Z,7.15
2017-11-01T20:04:54.841Z,6.78
2017-11-01T20:07:22.402Z,6.62
2017-11-01T20:09:49.930Z,7.12
2017-11-01T20:12:17.475Z,6.10
2017-11-01T20:14:44.993Z,6.10
2017-11-01T20:17:12.558Z,6.40
2017-11-01T20:19:40.089Z,5.75
2017-11-01T20:22:07.614Z,6.10
2017-11-01T20:24:35.153Z,7.20
2017-11-01T20:27:02.682Z,6.40
2017-11-01T20:29:30.624Z,6.55
2017-11-01T20:31:58.146Z,6.00
2017-11-01T20:34:25.701Z,6.20
2017-11-01T20:36:53.230Z,5.97
2017-11-01T20:39:20.760Z,5.93
2017-11-01T20:41:48.310Z,5.95
2017-11-01T20:44:16.225Z,6.05
2017-11-01T20:46:43.777Z,6.78
2017-11-01T20:49:11.306Z,6.18
2017-11-01T20:51:39.046Z,5.90
2017-11-01T20:54:06.677Z,6.30
2017-11-01T20:56:34.598Z,6.50
2017-11-01T20:59:02.153Z,6.60
2017-11-01T21:01:29.680Z,5.62
2017-11-01T21:03:57.217Z,5.50
2017-11-01T21:06:24.732Z,6.03
2017-11-01T21:08:52.451Z,6.28
2017-11-01T21:11:20.026Z,5.65
2017-11-01T21:13:47.593Z,5.45
2017-11-01T21:16:15.122Z,6.10
2017-11-01T21:18:42.642Z,5.62
2017-11-01T21:21:10.245Z,5.65
2017-11-01T21:23:37.761Z,6.30
2017-11-01T21:26:05.322Z,6.32
2017-11-01T21:28:32.840Z,6.80
2017-11-01T21:31:00.584Z,6.70
2017-11-01T21:33:28.594Z,5.85
2017-11-01T21:35:56.146Z,6.40
2017-11-01T21:38:24.635Z,6.22
2017-11-01T21:40:52.358Z,5.75
2017-11-01T21:43:19.902Z,6.20
2017-11-01T21:45:47.424Z,6.32
2017-11-01T21:48:15.380Z,5.70
2017-11-01T21:50:43.797Z,5.75
2017-11-01T21:53:11.731Z,6.25
2017-11-01T21:55:39.280Z,7.20
2017-11-01T21:58:06.817Z,5.93
2017-11-01T22:00:34.758Z,5.87
2017-11-01T22:03:02.291Z,6.97
2017-11-01T22:05:30.226Z,7.10
2017-11-01T22:07:57.744Z,5.70
2017-11-01T22:10:25.675Z,5.90
2017-11-01T22:12:53.196Z,4.93
2017-11-01T22:15:20.716Z,5.12
2017-11-01T22:17:48.272Z,5.80
2017-11-01T22:20:15.793Z,5.90
2017-11-01T22:22:43.761Z,5.57
2017-11-01T22:25:11.290Z,5.80
2017-11-01T22:27:38.855Z,6.10
2017-11-01T22:30:06.387Z,5.87
2017-11-01T22:32:34.315Z,5.70
2017-11-01T22:35:01.853Z,5.05
2017-11-01T22:37:29.769Z,5.15
2017-11-01T22:39:57.296Z,4.87
2017-11-01T22:42:24.827Z,5.30
2017-11-01T22:44:52.373Z,5.55
2017-11-01T22:47:19.976Z,6.07
2017-11-01T22:49:47.497Z,5.47
2017-11-01T22:52:15.059Z,5.05
2017-11-01T22:54:42.970Z,4.55
2017-11-01T22:57:10.510Z,4.40
2017-11-01T22:59:38.429Z,5.00
2017-11-01T23:02:06.010Z,4.70
2017-11-01T23:04:33.535Z,5.10
2017-11-01T23:07:01.464Z,5.62
2017-11-01T23:09:28.995Z,5.00
2017-11-01T23:11:56.949Z,6.00
2017-11-01T23:14:24.529Z,4.20
2017-11-01T23:16:52.460Z,5.10
2017-11-01T23:19:20.011Z,4.95
2017-11-01T23:21:47.540Z,4.82
2017-11-01T23:24:15.083Z,4.90
2017-11-01T23:26:42.606Z,4.85
2017-11-01T23:29:10.542Z,5.50
2017-11-01T23:31:38.060Z,6.03
2017-11-01T23:34:06.025Z,4.57
2017-11-01T23:36:33.546Z,5.28
2017-11-01T23:39:01.060Z,4.90
2017-11-01T23:41:28.598Z,4.47
2017-11-01T23:43:56.113Z,4.93
2017-11-01T23:46:24.052Z,4.40
2017-11-01T23:48:51.581Z,4.95
2017-11-01T23:51:19.529Z,4.75
2017-11-01T23:53:47.058Z,4.55
2017-11-01T23:56:14.615Z,4.30
2017-11-01T23:58:42.141Z,3.70
